createdAt,value
2017-08-28T00:00:17.046Z,99.90
2017-08-28T00:05:03.694Z,99.90
2017-08-28T00:09:50.372Z,99.90
2017-08-28T00:14:36.983Z,99.90
2017-08-28T00:19:23.618Z,99.90
2017-08-28T00:24:10.319Z,99.90
2017-08-28T00:28:56.990Z,99.90
2017-08-28T00:33:43.679Z,99.90
2017-08-28T00:38:30.645Z,99.90
2017-08-28T00:43:17.340Z,99.90
2017-08-28T00:48:03.983Z,99.90
2017-08-28T00:52:50.633Z,99.90
2017-08-28T00:57:37.267Z,99.90
2017-08-28T01:02:23.895Z,99.90
2017-08-28T01:07:10.548Z,99.90
2017-08-28T01:11:57.695Z,99.90
2017-08-28T01:16:44.313Z,99.90
2017-08-28T01:21:30.974Z,99.90
2017-08-28T01:26:17.757Z,99.90
2017-08-28T01:31:04.393Z,99.90
2017-08-28T01:35:51.017Z,99.90
2017-08-28T01:40:37.712Z,99.90
2017-08-28T01:45:24.814Z,99.90
2017-08-28T01:50:11.453Z,99.90
2017-08-28T01:54:58.113Z,99.90
2017-08-28T01:59:44.763Z,99.90
2017-08-28T02:04:31.420Z,99.90
2017-08-28T02:09:18.074Z,99.90
2017-08-28T02:14:04.716Z,99.90
2017-08-28T02:18:51.659Z,99.90
2017-08-28T02:23:38.281Z,99.90
2017-08-28T02:28:24.905Z,99.90
2017-08-28T02:33:11.732Z,99.90
2017-08-28T02:37:58.350Z,99.90
2017-08-28T02:42:45.000Z,99.90
2017-08-28T02:47:31.648Z,99.90
2017-08-28T02:52:18.290Z,99.90
2017-08-28T02:57:05.033Z,99.90
2017-08-28T03:01:51.756Z,99.90
2017-08-28T03:06:38.494Z,99.90
2017-08-28T03:11:25.207Z,99.90
2017-08-28T03:16:12.134Z,99.90
2017-08-28T03:20:58.837Z,99.90
2017-08-28T03:25:45.911Z,99.90
2017-08-28T03:30:32.591Z,99.90
2017-08-28T03:35:19.565Z,99.90
2017-08-28T03:40:06.169Z,99.90
2017-08-28T03:44:52.811Z,99.90
2017-08-28T03:49:39.449Z,99.90
2017-08-28T03:54:26.089Z,99.90
2017-08-28T03:59:12.737Z,99.90
2017-08-28T04:03:59.337Z,99.90
2017-08-28T04:08:45.995Z,99.90
2017-08-28T04:13:32.646Z,99.90
2017-08-28T04:18:19.282Z,99.90
2017-08-28T04:23:05.960Z,99.90
2017-08-28T04:27:52.613Z,99.90
2017-08-28T04:32:39.252Z,99.90
2017-08-28T04:37:26.192Z,99.90
2017-08-28T04:42:12.850Z,99.90
2017-08-28T04:46:59.505Z,99.90
2017-08-28T04:51:46.137Z,99.90
2017-08-28T04:56:32.849Z,99.90
2017-08-28T05:01:19.604Z,99.90
2017-08-28T05:06:06.355Z,99.90
2017-08-28T05:10:52.994Z,99.90
2017-08-28T05:15:39.585Z,99.90
2017-08-28T05:20:26.357Z,99.90
2017-08-28T05:25:13.027Z,99.90
2017-08-28T05:29:59.981Z,99.90
2017-08-28T05:34:46.630Z,99.90
2017-08-28T05:39:33.418Z,99.90
2017-08-28T05:44:20.071Z,99.90
2017-08-28T05:49:06.752Z,99.90
2017-08-28T05:53:53.567Z,99.90
2017-08-28T05:58:40.234Z,99.90
2017-08-28T06:03:27.253Z,99.90
2017-08-28T06:08:13.881Z,99.90
2017-08-28T06:13:00.567Z,99.90
2017-08-28T06:17:47.213Z,99.90
2017-08-28T06:22:33.847Z,99.90
2017-08-28T06:27:20.501Z,99.90
2017-08-28T06:32:07.134Z,99.90
2017-08-28T06:36:53.762Z,99.90
2017-08-28T06:41:40.752Z,99.90
2017-08-28T06:46:27.398Z,99.90
2017-08-28T06:51:14.037Z,99.90
2017-08-28T06:56:00.656Z,99.90
2017-08-28T07:00:47.298Z,99.90
2017-08-28T07:05:33.940Z,99.90
2017-08-28T07:10:20.970Z,99.90
2017-08-28T07:15:07.590Z,99.90
2017-08-28T07:19:54.235Z,99.90
2017-08-28T07:24:40.850Z,99.90
2017-08-28T07:29:27.471Z,99.90
2017-08-28T07:34:15.893Z,99.90
2017-08-28T07:39:02.540Z,99.90
2017-08-28T07:43:49.193Z,99.90
2017-08-28T07:48:35.831Z,99.60
2017-08-28T07:53:22.777Z,99.80
2017-08-28T07:58:09.394Z,99.90
2017-08-28T08:02:56.630Z,99.90
2017-08-28T08:07:43.263Z,99.60
2017-08-28T08:12:29.919Z,99.30
2017-08-28T08:17:16.552Z,99.70
2017-08-28T08:22:03.167Z,99.40
2017-08-28T08:26:49.789Z,99.00
2017-08-28T08:31:36.762Z,99.30
2017-08-28T08:36:23.385Z,99.70
2017-08-28T08:41:10.024Z,99.90
2017-08-28T08:45:56.625Z,99.90
2017-08-28T08:50:43.345Z,99.10
2017-08-28T08:55:30.289Z,98.50
2017-08-28T09:00:16.897Z,97.40
2017-08-28T09:05:03.533Z,96.50
2017-08-28T09:09:50.245Z,96.70
2017-08-28T09:14:37.361Z,95.90
2017-08-28T09:19:24.238Z,96.20
2017-08-28T09:24:11.183Z,96.00
2017-08-28T09:28:57.854Z,95.80
2017-08-28T09:33:44.498Z,96.40
2017-08-28T09:38:31.172Z,94.80
2017-08-28T09:43:17.845Z,94.70
2017-08-28T09:48:04.785Z,95.40
2017-08-28T09:52:51.412Z,94.80
2017-08-28T09:57:38.321Z,94.40
2017-08-28T10:02:24.940Z,94.60
2017-08-28T10:07:11.617Z,96.50
2017-08-28T10:11:58.253Z,95.20
2017-08-28T10:16:44.900Z,95.40
2017-08-28T10:21:31.561Z,95.50
2017-08-28T10:26:18.226Z,94.90
2017-08-28T10:31:04.850Z,93.80
2017-08-28T10:35:51.477Z,95.60
2017-08-28T10:40:38.336Z,94.70
2017-08-28T10:45:25.008Z,94.30
2017-08-28T10:50:12.566Z,95.80
2017-08-28T10:54:59.236Z,94.50
2017-08-28T10:59:45.904Z,95.70
2017-08-28T11:04:32.608Z,94.80
2017-08-28T11:09:19.278Z,93.50
2017-08-28T11:14:05.961Z,95.80
2017-08-28T11:18:52.589Z,95.20
2017-08-28T11:23:39.337Z,92.60
2017-08-28T11:28:26.302Z,93.10
2017-08-28T11:33:12.922Z,92.40
2017-08-28T11:37:59.605Z,86.00
2017-08-28T11:42:46.251Z,88.30
2017-08-28T11:47:32.916Z,86.30
2017-08-28T11:52:19.582Z,79.60
2017-08-28T11:57:06.219Z,78.00
2017-08-28T12:01:53.145Z,80.30
2017-08-28T12:06:39.772Z,82.60
2017-08-28T12:11:26.425Z,81.10
2017-08-28T12:16:13.068Z,83.90
2017-08-28T12:20:59.698Z,79.60
2017-08-28T12:25:46.336Z,81.60
2017-08-28T12:30:32.974Z,81.60
2017-08-28T12:35:20.005Z,81.00
2017-08-28T12:40:06.656Z,76.10
2017-08-28T12:44:53.293Z,76.40
2017-08-28T12:49:39.921Z,72.20
2017-08-28T12:54:26.554Z,74.90
2017-08-28T12:59:13.193Z,78.20
2017-08-28T13:04:00.123Z,79.40
2017-08-28T13:08:46.812Z,76.80
2017-08-28T13:13:33.577Z,79.70
2017-08-28T13:18:20.232Z,78.30
2017-08-28T13:23:06.933Z,78.30
2017-08-28T13:27:53.590Z,79.10
2017-08-28T13:32:40.262Z,75.00
2017-08-28T13:37:26.939Z,74.60
2017-08-28T13:42:13.874Z,75.50
2017-08-28T13:47:00.466Z,72.80
2017-08-28T13:51:47.103Z,72.60
2017-08-28T13:56:33.726Z,73.10
2017-08-28T14:01:20.401Z,72.70
2017-08-28T14:06:07.078Z,74.40
2017-08-28T14:10:53.739Z,74.40
2017-08-28T14:15:40.504Z,74.50
2017-08-28T14:20:27.459Z,77.90
2017-08-28T14:25:14.170Z,73.40
2017-08-28T14:30:00.869Z,75.00
2017-08-28T14:34:47.607Z,73.70
2017-08-28T14:39:34.538Z,74.20
2017-08-28T14:44:21.250Z,72.60
2017-08-28T14:49:08.037Z,76.40
2017-08-28T14:53:55.370Z,75.60
2017-08-28T14:58:42.157Z,76.90
2017-08-28T15:03:28.888Z,79.20
2017-08-28T15:08:15.541Z,80.00
2017-08-28T15:13:02.245Z,82.80
2017-08-28T15:17:49.717Z,81.00
2017-08-28T15:22:36.379Z,81.20
2017-08-28T15:27:23.043Z,80.60
2017-08-28T15:32:09.735Z,78.30
2017-08-28T15:36:56.481Z,75.80
2017-08-28T15:41:43.141Z,79.80
2017-08-28T15:46:29.786Z,82.80
2017-08-28T15:51:16.421Z,84.60
2017-08-28T15:56:03.214Z,88.30
2017-08-28T16:00:50.008Z,89.40
2017-08-28T16:05:36.722Z,90.80
2017-08-28T16:10:24.133Z,91.90
2017-08-28T16:15:10.742Z,91.90
2017-08-28T16:19:57.391Z,91.90
2017-08-28T16:24:43.998Z,92.40
2017-08-28T16:29:30.643Z,91.90
2017-08-28T16:34:17.292Z,91.80
2017-08-28T16:39:03.904Z,91.70
2017-08-28T16:43:50.617Z,92.00
2017-08-28T16:48:37.265Z,92.10
2017-08-28T16:53:24.274Z,92.00
2017-08-28T16:58:10.980Z,92.40
2017-08-28T17:02:57.597Z,92.80
2017-08-28T17:07:44.351Z,93.50
2017-08-28T17:12:30.989Z,93.70
2017-08-28T17:17:17.901Z,94.20
2017-08-28T17:22:05.452Z,94.70
2017-08-28T17:26:52.097Z,94.90
2017-08-28T17:31:39.142Z,95.10
2017-08-28T17:36:25.760Z,95.10
2017-08-28T17:41:12.851Z,94.90
2017-08-28T17:45:59.559Z,95.60
2017-08-28T17:50:46.257Z,95.70
2017-08-28T17:55:32.996Z,95.60
2017-08-28T18:00:19.651Z,96.00
2017-08-28T18:05:06.650Z,96.20
2017-08-28T18:09:55.094Z,97.10
2017-08-28T18:14:43.606Z,97.30
2017-08-28T18:19:30.278Z,98.10
2017-08-28T18:24:16.925Z,98.00
2017-08-28T18:29:03.550Z,98.60
2017-08-28T18:33:50.623Z,98.70
2017-08-28T18:38:37.244Z,99.50
2017-08-28T18:43:23.908Z,99.50
2017-08-28T18:48:10.623Z,99.90
2017-08-28T18:52:57.242Z,99.90
2017-08-28T18:57:43.892Z,99.90
2017-08-28T19:02:31.176Z,99.90
2017-08-28T19:07:17.854Z,99.90
2017-08-28T19:12:04.554Z,99.90
2017-08-28T19:16:51.252Z,99.90
2017-08-28T19:21:38.033Z,99.90
2017-08-28T19:26:24.737Z,99.90
2017-08-28T19:31:11.490Z,99.90
2017-08-28T19:35:58.234Z,99.90
2017-08-28T19:40:45.032Z,99.90
2017-08-28T19:45:31.701Z,99.90
2017-08-28T19:50:18.519Z,99.90
2017-08-28T19:55:05.396Z,99.90
2017-08-28T19:59:52.086Z,99.90
2017-08-28T20:04:39.122Z,99.90
2017-08-28T20:09:25.784Z,99.90
2017-08-28T20:14:12.475Z,99.90
2017-08-28T20:18:59.442Z,99.90
2017-08-28T20:23:46.149Z,99.90
2017-08-28T20:28:32.938Z,99.90
2017-08-28T20:33:19.938Z,99.90
2017-08-28T20:38:07.025Z,99.90
2017-08-28T20:42:53.748Z,99.90
2017-08-28T20:47:40.469Z,99.90
2017-08-28T20:52:27.146Z,99.90
2017-08-28T20:57:13.798Z,99.90
2017-08-28T21:02:00.431Z,99.90
2017-08-28T21:06:47.474Z,99.90
2017-08-28T21:11:34.192Z,99.90
2017-08-28T21:16:20.821Z,99.90
2017-08-28T21:21:07.453Z,99.90
2017-08-28T21:25:54.094Z,99.90
2017-08-28T21:30:40.742Z,99.90
2017-08-28T21:35:27.568Z,99.90
2017-08-28T21:40:14.381Z,99.90
2017-08-28T21:45:01.461Z,99.90
2017-08-28T21:49:48.168Z,99.90
2017-08-28T21:54:34.840Z,99.90
2017-08-28T21:59:22.035Z,99.90
2017-08-28T22:04:08.683Z,99.90
2017-08-28T22:08:55.631Z,99.90
2017-08-28T22:13:42.278Z,99.90
2017-08-28T22:18:30.038Z,99.90
2017-08-28T22:23:16.838Z,99.90
2017-08-28T22:28:03.582Z,99.90
2017-08-28T22:32:50.229Z,99.90
2017-08-28T22:37:36.886Z,99.90
2017-08-28T22:42:23.534Z,99.90
2017-08-28T22:47:10.473Z,99.90
2017-08-28T22:51:57.082Z,99.90
2017-08-28T22:56:43.737Z,99.90
2017-08-28T23:01:30.442Z,99.90
2017-08-28T23:06:17.680Z,99.90
2017-08-28T23:11:04.349Z,99.90
2017-08-28T23:15:50.997Z,99.90
2017-08-28T23:20:37.628Z,99.90
2017-08-28T23:25:24.248Z,99.90
2017-08-28T23:30:10.894Z,99.90
2017-08-28T23:34:57.593Z,99.90
2017-08-28T23:39:44.225Z,99.90
2017-08-28T23:44:31.354Z,99.90
2017-08-28T23:49:18.042Z,99.90
2017-08-28T23:54:04.796Z,99.90
2017-08-28T23:58:51.417Z,99.90
